createdAt,value
2023-03-01T00:01:39.923Z,-0.69
2023-03-01T00:04:08.000Z,-0.71
2023-03-01T00:06:37.769Z,-0.72
2023-03-01T00:09:06.498Z,-0.73
2023-03-01T00:11:35.228Z,-0.75
2023-03-01T00:14:05.170Z,-0.76
2023-03-01T00:16:35.847Z,-0.75
2023-03-01T00:19:04.234Z,-0.74
2023-03-01T00:21:32.354Z,-0.75
2023-03-01T00:24:00.342Z,-0.77
2023-03-01T00:26:28.984Z,-0.78
2023-03-01T00:28:59.465Z,-0.79
2023-03-01T00:31:30.573Z,-0.80
2023-03-01T00:34:00.484Z,-0.81
2023-03-01T00:36:30.573Z,-0.80
2023-03-01T00:38:59.584Z,-0.79
2023-03-01T00:41:28.808Z,-0.77
2023-03-01T00:43:56.922Z,-0.75
2023-03-01T00:46:26.856Z,-0.74
2023-03-01T00:48:55.053Z,-0.73
2023-03-01T00:51:24.675Z,-0.72
2023-03-01T00:53:53.701Z,-0.71
2023-03-01T00:56:22.189Z,-0.71
2023-03-01T00:58:50.378Z,-0.71
2023-03-01T01:01:21.737Z,-0.70
2023-03-01T01:03:53.149Z,-0.71
2023-03-01T01:06:23.661Z,-0.72
2023-03-01T01:08:53.074Z,-0.73
2023-03-01T01:11:21.948Z,-0.73
2023-03-01T01:13:50.714Z,-0.73
2023-03-01T01:16:21.987Z,-0.74
2023-03-01T01:18:51.169Z,-0.73
2023-03-01T01:21:21.626Z,-0.72
2023-03-01T01:23:50.537Z,-0.70
2023-03-01T01:26:20.442Z,-0.71
2023-03-01T01:28:48.877Z,-0.71
2023-03-01T01:31:17.733Z,-0.72
2023-03-01T01:33:46.751Z,-0.71
2023-03-01T01:36:14.935Z,-0.72
2023-03-01T01:38:43.094Z,-0.72
2023-03-01T01:41:12.382Z,-0.73
2023-03-01T01:43:42.710Z,-0.71
2023-03-01T01:46:24.506Z,-0.73
2023-03-01T01:48:58.398Z,-0.73
2023-03-01T01:51:30.072Z,-0.74
2023-03-01T01:54:01.744Z,-0.77
2023-03-01T01:56:31.538Z,-0.80
2023-03-01T01:59:00.116Z,-0.83
2023-03-01T02:01:28.477Z,-0.84
2023-03-01T02:03:56.946Z,-0.84
2023-03-01T02:06:30.276Z,-0.85
2023-03-01T02:09:05.472Z,-0.86
2023-03-01T02:11:34.335Z,-0.85
2023-03-01T02:14:02.371Z,-0.87
2023-03-01T02:16:31.584Z,-0.87
2023-03-01T02:19:00.348Z,-0.86
2023-03-01T02:21:42.768Z,-0.86
2023-03-01T02:24:23.186Z,-0.85
2023-03-01T02:26:55.137Z,-0.85
2023-03-01T02:29:24.017Z,-0.87
2023-03-01T02:31:56.900Z,-0.88
2023-03-01T02:34:26.620Z,-0.91
2023-03-01T02:37:00.804Z,-0.95
2023-03-01T02:39:33.890Z,-0.95
2023-03-01T02:42:04.715Z,-0.97
2023-03-01T02:44:32.786Z,-0.98
2023-03-01T02:47:03.811Z,-0.98
2023-03-01T02:49:35.022Z,-0.96
2023-03-01T02:52:17.293Z,-0.94
2023-03-01T02:54:51.541Z,-0.93
2023-03-01T02:57:21.128Z,-0.92
2023-03-01T02:59:50.857Z,-0.93
2023-03-01T03:02:36.248Z,-0.96
2023-03-01T03:05:10.851Z,-0.99
2023-03-01T03:07:41.263Z,-1.02
2023-03-01T03:10:12.610Z,-1.04
2023-03-01T03:12:42.383Z,-1.04
2023-03-01T03:15:12.987Z,-1.03
2023-03-01T03:17:46.307Z,-1.03
2023-03-01T03:20:29.490Z,-1.04
2023-03-01T03:23:00.311Z,-1.05
2023-03-01T03:25:30.133Z,-1.07
2023-03-01T03:27:59.090Z,-1.06
2023-03-01T03:30:28.854Z,-1.06
2023-03-01T03:32:57.997Z,-1.04
2023-03-01T03:35:30.467Z,-1.03
2023-03-01T03:38:02.405Z,-1.04
2023-03-01T03:40:32.602Z,-1.04
2023-03-01T03:43:00.996Z,-1.03
2023-03-01T03:45:29.141Z,-1.02
2023-03-01T03:47:57.212Z,-1.01
2023-03-01T03:50:25.212Z,-1.01
2023-03-01T03:52:53.486Z,-0.99
2023-03-01T03:55:21.560Z,-0.99
2023-03-01T03:57:51.685Z,-0.97
2023-03-01T04:00:24.167Z,-0.99
2023-03-01T04:02:56.606Z,-0.99
2023-03-01T04:05:25.025Z,-1.00
2023-03-01T04:08:01.411Z,-1.00
2023-03-01T04:10:31.767Z,-1.02
2023-03-01T04:13:00.119Z,-1.04
2023-03-01T04:15:28.857Z,-1.06
2023-03-01T04:17:57.131Z,-1.07
2023-03-01T04:20:27.406Z,-1.07
2023-03-01T04:23:09.102Z,-1.06
2023-03-01T04:25:38.596Z,-1.04
2023-03-01T04:28:07.377Z,-1.02
2023-03-01T04:30:36.380Z,-1.01
2023-03-01T04:33:06.553Z,-1.01
2023-03-01T04:35:35.376Z,-1.01
2023-03-01T04:38:03.868Z,-1.03
2023-03-01T04:40:32.246Z,-1.02
2023-03-01T04:43:00.817Z,-1.02
2023-03-01T04:45:28.901Z,-1.02
2023-03-01T04:47:58.635Z,-1.01
2023-03-01T04:50:26.666Z,-1.00
2023-03-01T04:52:55.099Z,-0.99
2023-03-01T04:55:26.203Z,-0.99
2023-03-01T04:57:54.813Z,-0.95
2023-03-01T05:00:24.074Z,-0.93
2023-03-01T05:02:54.512Z,-0.91
2023-03-01T05:05:25.882Z,-0.90
2023-03-01T05:07:55.666Z,-0.89
2023-03-01T05:10:24.974Z,-0.89
2023-03-01T05:12:53.375Z,-0.89
2023-03-01T05:15:25.848Z,-0.88
2023-03-01T05:17:59.090Z,-0.88
2023-03-01T05:20:31.095Z,-0.88
2023-03-01T05:23:05.566Z,-0.88
2023-03-01T05:25:34.450Z,-0.88
2023-03-01T05:28:04.623Z,-0.88
2023-03-01T05:30:33.836Z,-0.87
2023-03-01T05:33:03.095Z,-0.86
2023-03-01T05:35:34.670Z,-0.84
2023-03-01T05:38:03.822Z,-0.83
2023-03-01T05:40:33.783Z,-0.81
2023-03-01T05:43:05.626Z,-0.76
2023-03-01T05:45:36.298Z,-0.71
2023-03-01T05:48:05.778Z,-0.66
2023-03-01T05:51:01.709Z,-0.60
2023-03-01T05:53:31.416Z,-0.55
2023-03-01T05:56:00.766Z,-0.49
2023-03-01T05:59:26.219Z,-0.45
2023-03-01T06:01:54.318Z,-0.34
2023-03-01T06:04:22.391Z,-0.24
2023-03-01T06:06:50.481Z,-0.11
2023-03-01T06:09:21.321Z,0.04
2023-03-01T06:11:52.456Z,0.21
2023-03-01T06:14:21.316Z,0.40
2023-03-01T06:16:49.575Z,0.60
2023-03-01T06:19:18.248Z,0.84
2023-03-01T06:21:46.465Z,1.13
2023-03-01T06:24:14.628Z,1.43
2023-03-01T06:26:42.863Z,1.75
2023-03-01T06:29:11.208Z,2.09
2023-03-01T06:35:18.254Z,3.11
2023-03-01T06:37:47.942Z,3.58
2023-03-01T06:40:16.850Z,4.03
2023-03-01T06:42:50.072Z,4.47
2023-03-01T06:45:19.767Z,4.95
2023-03-01T06:47:48.099Z,5.46
2023-03-01T06:50:17.784Z,6.00
2023-03-01T06:53:18.115Z,6.57
2023-03-01T06:56:25.179Z,7.40
2023-03-01T06:58:53.380Z,8.08
2023-03-01T07:02:09.886Z,8.70
2023-03-01T07:05:04.281Z,9.45
2023-03-01T07:07:32.664Z,10.14
2023-03-01T07:10:01.012Z,10.64
2023-03-01T07:12:29.378Z,11.09
2023-03-01T07:14:58.060Z,11.56
2023-03-01T07:17:26.432Z,12.18
2023-03-01T07:19:54.907Z,12.78
2023-03-01T07:22:25.799Z,13.44
2023-03-01T07:24:56.803Z,13.99
2023-03-01T07:27:25.100Z,14.42
2023-03-01T07:29:53.604Z,14.79
2023-03-01T07:32:21.920Z,15.24
2023-03-01T07:34:51.702Z,15.72
2023-03-01T07:37:19.962Z,16.20
2023-03-01T07:39:48.574Z,16.71
2023-03-01T07:42:16.838Z,17.17
2023-03-01T07:44:45.189Z,17.50
2023-03-01T07:47:15.845Z,17.99
2023-03-01T07:49:44.150Z,18.46
2023-03-01T07:52:13.369Z,19.03
2023-03-01T07:54:45.049Z,19.59
2023-03-01T07:57:13.453Z,20.19
2023-03-01T07:59:42.909Z,20.73
2023-03-01T08:02:12.016Z,21.16
2023-03-01T08:04:40.293Z,21.52
2023-03-01T08:07:08.821Z,21.96
2023-03-01T08:09:37.656Z,22.42
2023-03-01T08:12:09.469Z,22.79
2023-03-01T08:14:37.765Z,23.08
2023-03-01T08:17:06.061Z,23.24
2023-03-01T08:19:37.567Z,23.38
2023-03-01T08:22:08.232Z,23.38
2023-03-01T08:24:50.722Z,23.34
2023-03-01T08:27:24.550Z,23.12
2023-03-01T08:29:55.140Z,22.96
2023-03-01T08:32:26.847Z,22.93
2023-03-01T08:34:55.392Z,22.80
2023-03-01T08:37:23.744Z,22.76
2023-03-01T08:39:52.075Z,22.57
2023-03-01T08:42:20.412Z,22.38
2023-03-01T08:44:49.036Z,22.31
2023-03-01T08:47:17.306Z,22.27
2023-03-01T08:49:45.843Z,22.26
2023-03-01T08:52:14.029Z,22.25
2023-03-01T08:54:42.299Z,22.29
2023-03-01T08:57:10.500Z,22.42
2023-03-01T08:59:38.896Z,22.53
2023-03-01T09:02:12.407Z,22.56
2023-03-01T09:04:40.832Z,22.62
2023-03-01T09:07:10.670Z,22.58
2023-03-01T09:09:39.276Z,22.33
2023-03-01T09:12:09.298Z,22.26
2023-03-01T09:14:41.582Z,22.31
2023-03-01T09:17:09.915Z,22.46
2023-03-01T09:19:38.487Z,22.63
2023-03-01T09:22:06.976Z,22.68
2023-03-01T09:24:35.665Z,22.64
2023-03-01T09:27:09.172Z,22.52
2023-03-01T09:29:37.753Z,22.20
2023-03-01T09:32:08.507Z,21.71
2023-03-01T09:34:58.325Z,21.22
2023-03-01T09:37:31.334Z,20.64
2023-03-01T09:40:00.810Z,20.08
2023-03-01T09:42:32.993Z,19.65
2023-03-01T09:45:26.263Z,19.29
2023-03-01T09:47:56.482Z,19.04
2023-03-01T09:50:34.293Z,18.78
2023-03-01T09:53:04.532Z,18.55
2023-03-01T09:55:39.466Z,18.36
2023-03-01T09:58:27.555Z,18.16
2023-03-01T10:01:00.543Z,17.89
2023-03-01T10:03:38.444Z,17.70
2023-03-01T10:06:27.477Z,17.51
2023-03-01T10:09:11.384Z,17.27
2023-03-01T10:11:46.076Z,17.06
2023-03-01T10:14:24.810Z,16.84
2023-03-01T10:16:58.928Z,16.61
2023-03-01T10:19:34.634Z,16.43
2023-03-01T10:22:10.810Z,16.33
2023-03-01T10:24:39.171Z,16.26
2023-03-01T10:27:13.597Z,16.10
2023-03-01T10:29:54.938Z,15.96
2023-03-01T10:32:25.145Z,15.80
2023-03-01T10:34:54.253Z,15.66
2023-03-01T10:37:25.104Z,15.51
2023-03-01T10:39:59.607Z,15.41
2023-03-01T10:42:31.289Z,15.42
2023-03-01T10:45:14.944Z,15.41
2023-03-01T10:47:43.443Z,15.30
2023-03-01T10:50:22.953Z,15.27
2023-03-01T10:53:00.173Z,15.22
2023-03-01T10:55:34.369Z,15.14
2023-03-01T10:58:19.402Z,15.08
2023-03-01T11:00:51.577Z,14.91
2023-03-01T11:03:24.678Z,14.72
2023-03-01T11:05:59.063Z,14.53
2023-03-01T11:08:43.892Z,14.42
2023-03-01T11:11:33.253Z,14.32
2023-03-01T11:14:23.433Z,14.28
2023-03-01T11:17:02.113Z,14.22
2023-03-01T11:19:36.531Z,14.14
2023-03-01T11:22:11.626Z,14.04
2023-03-01T11:24:43.696Z,13.85
2023-03-01T11:27:20.224Z,13.67
2023-03-01T11:29:54.762Z,13.52
2023-03-01T11:32:27.431Z,13.38
2023-03-01T11:35:01.469Z,13.32
2023-03-01T11:37:42.057Z,13.21
2023-03-01T11:40:23.798Z,13.06
2023-03-01T11:43:12.569Z,12.85
2023-03-01T11:45:59.151Z,12.69
2023-03-01T11:48:49.955Z,12.57
2023-03-01T11:51:26.288Z,12.47
2023-03-01T11:54:10.760Z,12.46
2023-03-01T11:56:44.261Z,12.45
2023-03-01T11:59:42.638Z,12.39
2023-03-01T12:02:33.186Z,12.35
2023-03-01T12:05:22.433Z,12.35
2023-03-01T12:07:58.734Z,12.35
2023-03-01T12:10:33.746Z,12.43
2023-03-01T12:13:32.965Z,12.52
2023-03-01T12:16:38.725Z,12.58
2023-03-01T12:19:40.738Z,12.65
2023-03-01T12:22:29.690Z,12.64
2023-03-01T12:25:20.312Z,12.61
2023-03-01T12:28:18.859Z,12.59
2023-03-01T12:31:06.420Z,12.51
2023-03-01T12:33:46.691Z,12.44
2023-03-01T12:36:44.880Z,12.38
2023-03-01T12:39:31.570Z,12.38
2023-03-01T12:42:06.857Z,12.40
2023-03-01T12:44:57.597Z,12.43
2023-03-01T12:47:40.561Z,12.48
2023-03-01T12:50:19.598Z,12.52
2023-03-01T12:52:52.507Z,12.53
2023-03-01T12:55:29.246Z,12.54
2023-03-01T12:58:06.366Z,12.52
2023-03-01T13:00:40.500Z,12.46
2023-03-01T13:03:19.182Z,12.42
2023-03-01T13:06:07.315Z,12.36
2023-03-01T13:08:44.693Z,12.26
2023-03-01T13:11:21.659Z,12.13
2023-03-01T13:13:51.844Z,12.05
2023-03-01T13:16:43.591Z,11.98
2023-03-01T13:19:18.516Z,11.91
2023-03-01T13:21:48.846Z,11.86
2023-03-01T13:24:29.288Z,11.82
2023-03-01T13:27:25.494Z,11.78
2023-03-01T13:29:55.601Z,11.73
2023-03-01T13:32:37.787Z,11.68
2023-03-01T13:35:42.853Z,11.65
2023-03-01T13:38:41.443Z,11.54
2023-03-01T13:41:10.270Z,11.45
2023-03-01T13:43:41.370Z,11.43
2023-03-01T13:46:17.947Z,11.34
2023-03-01T13:48:50.996Z,11.31
2023-03-01T13:51:24.521Z,11.27
2023-03-01T13:53:54.948Z,11.20
2023-03-01T13:56:28.632Z,11.14
2023-03-01T13:59:01.656Z,11.11
2023-03-01T14:01:32.242Z,11.10
2023-03-01T14:04:01.174Z,11.11
2023-03-01T14:06:31.576Z,11.13
2023-03-01T14:09:10.945Z,11.15
2023-03-01T14:12:19.426Z,11.15
2023-03-01T14:15:00.465Z,11.15
2023-03-01T14:18:04.546Z,11.15
2023-03-01T14:20:38.370Z,11.14
2023-03-01T14:23:13.590Z,11.09
2023-03-01T14:25:50.021Z,11.02
2023-03-01T14:28:21.669Z,10.94
2023-03-01T14:30:51.496Z,10.92
2023-03-01T14:33:25.362Z,10.90
2023-03-01T14:35:59.438Z,10.88
2023-03-01T14:38:35.050Z,10.84
2023-03-01T14:41:07.079Z,10.79
2023-03-01T14:43:46.427Z,10.73
2023-03-01T14:46:22.061Z,10.68
2023-03-01T14:48:55.431Z,10.65
2023-03-01T14:51:24.654Z,10.63
2023-03-01T14:53:53.819Z,10.58
2023-03-01T14:56:22.929Z,10.50
2023-03-01T14:59:06.441Z,10.45
2023-03-01T15:01:36.285Z,10.35
2023-03-01T15:04:15.370Z,10.27
2023-03-01T15:06:45.001Z,10.18
2023-03-01T15:09:17.046Z,10.12
2023-03-01T15:11:46.014Z,10.08
2023-03-01T15:14:49.367Z,10.01
2023-03-01T15:17:23.882Z,9.93
2023-03-01T15:19:52.130Z,9.84
2023-03-01T15:25:06.431Z,9.73
2023-03-01T15:27:34.655Z,9.68
2023-03-01T15:30:05.283Z,9.61
2023-03-01T15:32:40.866Z,9.56
2023-03-01T15:35:41.614Z,9.46
2023-03-01T15:38:28.466Z,9.33
2023-03-01T15:40:58.838Z,9.23
2023-03-01T15:43:42.358Z,9.15
2023-03-01T15:46:19.736Z,9.08
2023-03-01T15:48:52.929Z,9.05
2023-03-01T15:51:33.325Z,9.03
2023-03-01T15:54:06.102Z,8.98
2023-03-01T15:56:37.322Z,8.97
2023-03-01T15:59:42.425Z,8.93
2023-03-01T16:02:12.852Z,8.84
2023-03-01T16:04:41.285Z,8.75
2023-03-01T16:07:14.951Z,8.69
2023-03-01T16:09:44.405Z,8.64
2023-03-01T16:12:17.032Z,8.60
2023-03-01T16:14:46.527Z,8.56
2023-03-01T16:17:19.857Z,8.51
2023-03-01T16:19:48.296Z,8.44
2023-03-01T16:22:16.628Z,8.42
2023-03-01T16:24:44.857Z,8.41
2023-03-01T16:27:14.153Z,8.40
2023-03-01T16:29:43.675Z,8.38
2023-03-01T16:32:11.988Z,8.36
2023-03-01T16:34:41.471Z,8.33
2023-03-01T16:37:09.596Z,8.27
2023-03-01T16:39:42.469Z,8.21
2023-03-01T16:42:11.020Z,8.16
2023-03-01T16:44:40.325Z,8.12
2023-03-01T16:47:09.217Z,8.06
2023-03-01T16:50:01.421Z,8.00
2023-03-01T16:52:29.872Z,7.96
2023-03-01T16:54:58.531Z,7.92
2023-03-01T16:57:35.811Z,7.85
2023-03-01T17:00:07.803Z,7.74
2023-03-01T17:03:01.194Z,7.66
2023-03-01T17:05:42.201Z,7.63
2023-03-01T17:08:10.558Z,7.59
2023-03-01T17:10:39.282Z,7.54
2023-03-01T17:13:07.768Z,7.53
2023-03-01T17:15:41.065Z,7.53
2023-03-01T17:18:10.611Z,7.51
2023-03-01T17:20:39.554Z,7.45
2023-03-01T17:24:05.489Z,7.42
2023-03-01T17:26:33.964Z,7.36
2023-03-01T17:29:27.041Z,7.33
2023-03-01T17:31:58.982Z,7.27
2023-03-01T17:34:28.047Z,7.24
2023-03-01T17:36:56.728Z,7.19
2023-03-01T17:39:28.619Z,7.13
2023-03-01T17:42:00.631Z,7.10
2023-03-01T17:44:38.272Z,7.06
2023-03-01T17:47:16.061Z,6.99
2023-03-01T17:49:44.492Z,6.94
2023-03-01T17:52:15.062Z,6.92
2023-03-01T17:54:43.604Z,6.89
2023-03-01T17:57:40.277Z,6.86
2023-03-01T18:00:15.397Z,6.81
2023-03-01T18:02:44.554Z,6.75
2023-03-01T18:05:14.720Z,6.68
2023-03-01T18:07:55.354Z,6.60
2023-03-01T18:10:23.777Z,6.50
2023-03-01T18:12:55.317Z,6.45
2023-03-01T18:15:23.863Z,6.43
2023-03-01T18:17:52.239Z,6.39
2023-03-01T18:20:21.069Z,6.34
2023-03-01T18:22:52.745Z,6.32
2023-03-01T18:25:21.872Z,6.30
2023-03-01T18:27:50.356Z,6.26
2023-03-01T18:30:19.078Z,6.25
2023-03-01T18:32:47.365Z,6.21
2023-03-01T18:35:16.300Z,6.19
2023-03-01T18:37:44.944Z,6.19
2023-03-01T18:40:13.763Z,6.16
2023-03-01T18:42:42.279Z,6.13
2023-03-01T18:45:13.559Z,6.06
2023-03-01T18:48:18.786Z,5.96
2023-03-01T18:50:47.299Z,5.90
2023-03-01T18:53:18.886Z,5.90
2023-03-01T18:55:47.293Z,5.89
2023-03-01T18:58:15.752Z,5.85
2023-03-01T19:00:46.272Z,5.78
2023-03-01T19:03:14.641Z,5.76
2023-03-01T19:05:43.133Z,5.72
2023-03-01T19:08:11.611Z,5.68
2023-03-01T19:10:40.534Z,5.64
2023-03-01T19:13:09.780Z,5.62
2023-03-01T19:15:38.699Z,5.63
2023-03-01T19:18:09.608Z,5.66
2023-03-01T19:20:39.532Z,5.68
2023-03-01T19:23:08.838Z,5.69
2023-03-01T19:25:37.065Z,5.66
2023-03-01T19:28:05.720Z,5.62
2023-03-01T19:30:34.313Z,5.57
2023-03-01T19:33:02.520Z,5.51
2023-03-01T19:35:33.715Z,5.46
2023-03-01T19:38:02.026Z,5.41
2023-03-01T19:40:30.378Z,5.34
2023-03-01T19:42:58.566Z,5.30
2023-03-01T19:45:33.281Z,5.28
2023-03-01T19:48:02.802Z,5.26
2023-03-01T19:50:31.347Z,5.21
2023-03-01T19:53:00.334Z,5.16
2023-03-01T19:55:28.966Z,5.13
2023-03-01T19:57:57.402Z,5.08
2023-03-01T20:00:26.050Z,5.04
2023-03-01T20:02:54.191Z,5.03
2023-03-01T20:05:22.666Z,5.03
2023-03-01T20:07:50.975Z,5.01
2023-03-01T20:10:20.405Z,5.00
2023-03-01T20:12:49.223Z,4.98
2023-03-01T20:15:18.113Z,4.94
2023-03-01T20:17:50.238Z,4.92
2023-03-01T20:20:38.001Z,4.89
2023-03-01T20:23:09.325Z,4.87
2023-03-01T20:25:37.901Z,4.84
2023-03-01T20:28:06.883Z,4.82
2023-03-01T20:30:36.963Z,4.84
2023-03-01T20:33:05.748Z,4.86
2023-03-01T20:35:35.502Z,4.89
2023-03-01T20:38:04.895Z,4.90
2023-03-01T20:40:33.540Z,4.93
2023-03-01T20:43:02.009Z,4.95
2023-03-01T20:45:30.338Z,4.96
2023-03-01T20:47:59.042Z,4.93
2023-03-01T20:50:27.825Z,4.92
2023-03-01T20:52:56.233Z,4.88
2023-03-01T20:55:24.678Z,4.87
2023-03-01T20:57:53.266Z,4.87
2023-03-01T21:00:22.588Z,4.85
2023-03-01T21:02:52.883Z,4.81
2023-03-01T21:05:23.362Z,4.75
2023-03-01T21:07:51.949Z,4.71
2023-03-01T21:10:21.536Z,4.69
2023-03-01T21:12:50.478Z,4.69
2023-03-01T21:15:28.699Z,4.69
2023-03-01T21:17:57.959Z,4.67
2023-03-01T21:20:26.366Z,4.65
2023-03-01T21:22:55.152Z,4.63
2023-03-01T21:25:23.452Z,4.60
2023-03-01T21:27:51.738Z,4.55
2023-03-01T21:30:20.227Z,4.50
2023-03-01T21:32:48.594Z,4.47
2023-03-01T21:35:17.081Z,4.46
2023-03-01T21:37:46.071Z,4.44
2023-03-01T21:40:15.710Z,4.42
2023-03-01T21:42:44.433Z,4.42
2023-03-01T21:45:14.971Z,4.38
2023-03-01T21:47:43.244Z,4.33
2023-03-01T21:50:16.151Z,4.26
2023-03-01T21:52:47.629Z,4.20
2023-03-01T21:55:19.098Z,4.19
2023-03-01T21:58:07.998Z,4.17
2023-03-01T22:00:39.266Z,4.17
2023-03-01T22:03:19.824Z,4.15
2023-03-01T22:05:59.099Z,4.14
2023-03-01T22:08:28.496Z,4.12
2023-03-01T22:10:56.816Z,4.13
2023-03-01T22:13:25.151Z,4.14
2023-03-01T22:15:53.348Z,4.14
2023-03-01T22:18:21.614Z,4.11
2023-03-01T22:20:54.627Z,4.08
2023-03-01T22:23:22.822Z,4.02
2023-03-01T22:25:51.121Z,4.00
2023-03-01T22:28:19.615Z,3.98
2023-03-01T22:30:47.913Z,3.99
2023-03-01T22:33:19.060Z,3.97
2023-03-01T22:35:54.852Z,3.96
2023-03-01T22:38:29.199Z,3.98
2023-03-01T22:40:59.115Z,4.02
2023-03-01T22:43:30.042Z,4.02
2023-03-01T22:46:12.396Z,3.98
2023-03-01T22:48:56.086Z,3.94
2023-03-01T22:51:34.345Z,3.90
2023-03-01T22:54:06.093Z,3.87
2023-03-01T22:56:45.808Z,3.83
2023-03-01T22:59:18.324Z,3.78
2023-03-01T23:01:48.066Z,3.71
2023-03-01T23:04:19.316Z,3.65
2023-03-01T23:06:53.142Z,3.61
2023-03-01T23:09:24.172Z,3.60
2023-03-01T23:11:53.297Z,3.59
2023-03-01T23:14:22.114Z,3.57
2023-03-01T23:16:50.945Z,3.57
2023-03-01T23:19:19.203Z,3.56
2023-03-01T23:21:49.537Z,3.56
2023-03-01T23:24:19.833Z,3.56
2023-03-01T23:26:52.661Z,3.52
2023-03-01T23:29:21.599Z,3.50
2023-03-01T23:31:49.875Z,3.46
2023-03-01T23:34:18.745Z,3.44
2023-03-01T23:36:47.313Z,3.43
2023-03-01T23:39:15.625Z,3.43
2023-03-01T23:41:44.081Z,3.41
2023-03-01T23:44:16.131Z,3.38
2023-03-01T23:46:45.842Z,3.37
2023-03-01T23:49:16.303Z,3.36
2023-03-01T23:51:46.968Z,3.36
2023-03-01T23:54:17.941Z,3.36
2023-03-01T23:56:46.998Z,3.35
2023-03-01T23:59:17.497Z,3.36
